Time;durP1;ratioP1;P1;durP2;ratioP2;P2;SDS_P1;SDS_P2;PMS_P1;PMS_P2;Temp;Humidity;BMP_temperature;BMP_pressure;BME280_temperature;BME280_humidity;BME280_pressure;Samples;Min_cycle;Max_cycle;Signal;HPM_P1;HPM_P2
2021/05/07 00:01:19;;;;;;;3.33;1.63;;;8.10;77.60;;;;;;5055656;28;20052;-92
2021/05/07 00:03:45;;;;;;;2.60;1.50;;;8.10;77.70;;;;;;5033086;28;20496;-91
2021/05/07 00:06:12;;;;;;;4.10;1.38;;;8.10;77.80;;;;;;5041532;28;20112;-95
2021/05/07 00:08:41;;;;;;;2.60;1.30;;;8.10;77.80;;;;;;5040782;28;20427;-91
2021/05/07 00:11:15;;;;;;;1.40;1.17;;;8.10;77.90;;;;;;5057426;28;20033;-92
2021/05/07 00:13:44;;;;;;;1.67;1.23;;;8.10;78.00;;;;;;5045386;28;20024;-96
2021/05/07 00:16:10;;;;;;;2.33;1.40;;;8.10;77.90;;;;;;5040023;28;20097;-91
2021/05/07 00:18:38;;;;;;;2.40;1.65;;;8.10;78.00;;;;;;5042602;28;20071;-93
2021/05/07 00:21:05;;;;;;;3.50;1.98;;;8.10;78.10;;;;;;5062010;28;20033;-92
2021/05/07 00:23:31;;;;;;;1.58;1.40;;;8.00;78.10;;;;;;5068157;28;20028;-92
2021/05/07 00:25:57;;;;;;;4.72;1.70;;;8.00;78.20;;;;;;5072559;28;20460;-92
2021/05/07 00:28:23;;;;;;;2.47;1.50;;;8.00;78.20;;;;;;5068967;28;20057;-91
2021/05/07 00:30:51;;;;;;;2.72;1.88;;;8.00;78.20;;;;;;5068410;28;20017;-90
2021/05/07 00:33:17;;;;;;;2.03;1.40;;;8.00;78.40;;;;;;5078122;28;20021;-91
2021/05/07 00:35:43;;;;;;;2.22;1.40;;;8.00;78.40;;;;;;5077296;28;20059;-89
2021/05/07 00:38:09;;;;;;;4.53;1.88;;;8.00;78.60;;;;;;5061050;28;20025;-92
2021/05/07 00:40:35;;;;;;;3.53;1.48;;;8.00;78.60;;;;;;5061631;28;20025;-89
2021/05/07 00:43:01;;;;;;;2.03;1.60;;;7.90;78.70;;;;;;5064656;28;20040;-92
2021/05/07 00:45:27;;;;;;;3.80;1.70;;;8.00;79.00;;;;;;5063153;28;20033;-93
2021/05/07 00:48:00;;;;;;;1.88;1.67;;;8.00;79.00;;;;;;5059400;28;20105;-92
2021/05/07 00:50:28;;;;;;;6.15;4.10;;;8.00;79.20;;;;;;5063757;28;20021;-90
2021/05/07 00:52:59;;;;;;;3.40;1.75;;;7.90;79.10;;;;;;5056662;28;20032;-90
2021/05/07 00:55:29;;;;;;;2.88;1.50;;;8.00;79.00;;;;;;5051441;28;20028;-91
2021/05/07 00:57:55;;;;;;;1.92;1.60;;;8.00;78.80;;;;;;5028316;28;20032;-91
2021/05/07 01:00:23;;;;;;;2.87;1.60;;;8.00;78.80;;;;;;5068999;28;20020;-93
2021/05/07 01:02:49;;;;;;;2.47;1.85;;;8.00;78.50;;;;;;5051312;28;20040;-93
2021/05/07 01:05:15;;;;;;;3.30;1.63;;;8.00;78.40;;;;;;5059762;28;20044;-91
2021/05/07 01:07:41;;;;;;;1.63;1.52;;;8.00;78.50;;;;;;5070683;28;20005;-89
2021/05/07 01:10:09;;;;;;;1.60;1.42;;;8.00;78.50;;;;;;5063255;28;20073;-90
2021/05/07 01:12:40;;;;;;;3.83;1.58;;;8.00;78.30;;;;;;5080421;28;20013;-85
2021/05/07 01:15:24;;;;;;;4.72;2.30;;;8.00;78.40;;;;;;5073787;28;20041;-89
2021/05/07 01:17:52;;;;;;;1.88;1.52;;;7.90;78.60;;;;;;5065768;28;20474;-90
2021/05/07 01:20:25;;;;;;;2.25;1.80;;;7.90;78.60;;;;;;5034996;28;20394;-91
2021/05/07 01:22:54;;;;;;;4.07;1.80;;;7.90;78.80;;;;;;5056518;28;20434;-92
2021/05/07 01:25:22;;;;;;;2.28;1.70;;;7.80;78.90;;;;;;5073848;28;20096;-90
2021/05/07 01:27:52;;;;;;;2.92;2.10;;;7.80;79.10;;;;;;5047621;28;20057;-91
2021/05/07 01:30:20;;;;;;;3.42;1.75;;;7.70;79.30;;;;;;5062179;28;20020;-92
2021/05/07 01:32:48;;;;;;;3.17;1.45;;;7.70;79.30;;;;;;5044920;28;20032;-94
2021/05/07 01:35:17;;;;;;;3.63;1.90;;;7.70;79.30;;;;;;5044215;28;20024;-92
2021/05/07 01:37:48;;;;;;;1.85;1.52;;;7.70;79.40;;;;;;5062127;28;20025;-90
2021/05/07 01:40:21;;;;;;;1.60;1.50;;;7.70;79.50;;;;;;5044217;28;20017;-92
2021/05/07 01:42:48;;;;;;;2.42;1.92;;;7.70;79.40;;;;;;5059266;28;20017;-92
2021/05/07 01:45:15;;;;;;;2.55;1.85;;;7.70;79.30;;;;;;5060802;28;20544;-90
2021/05/07 01:47:42;;;;;;;6.05;2.35;;;7.80;79.30;;;;;;5041629;28;20100;-88
2021/05/07 01:50:10;;;;;;;2.10;1.42;;;7.80;79.30;;;;;;5058838;28;20021;-89
2021/05/07 01:52:36;;;;;;;;;;;7.70;79.40;;;;;;5065335;28;20039;-89
2021/05/07 01:55:06;;;;;;;2.72;1.67;;;7.70;79.10;;;;;;5064655;28;19905;-91
2021/05/07 01:57:34;;;;;;;2.80;1.85;;;7.70;79.30;;;;;;5046707;28;20024;-88
2021/05/07 02:00:01;;;;;;;4.78;1.80;;;7.70;79.30;;;;;;5071027;28;20021;-90
2021/05/07 02:02:27;;;;;;;1.83;1.65;;;7.70;79.40;;;;;;5070339;28;20021;-88
2021/05/07 02:04:53;;;;;;;3.77;2.20;;;7.80;79.30;;;;;;5067675;28;20123;-90
2021/05/07 02:07:19;;;;;;;4.78;1.65;;;7.80;79.30;;;;;;5044750;28;20398;-90
2021/05/07 02:09:45;;;;;;;5.63;1.90;;;7.70;79.30;;;;;;5068403;28;20072;-89
2021/05/07 02:12:11;;;;;;;2.20;1.92;;;7.80;79.50;;;;;;5051299;28;20043;-92
2021/05/07 02:14:37;;;;;;;4.18;2.30;;;7.80;79.40;;;;;;5063999;28;20502;-88
2021/05/07 02:17:04;;;;;;;4.43;2.13;;;7.90;79.70;;;;;;5043948;28;20021;-92
2021/05/07 02:19:31;;;;;;;4.32;2.08;;;7.90;79.50;;;;;;5040862;28;20028;-90
2021/05/07 02:21:57;;;;;;;4.38;2.83;;;8.00;79.30;;;;;;5039671;28;20040;-90
2021/05/07 02:24:25;;;;;;;1.80;1.63;;;8.00;79.00;;;;;;5057664;28;20422;-91
2021/05/07 02:26:50;;;;;;;3.42;2.15;;;8.00;78.80;;;;;;5044527;28;20394;-91
2021/05/07 02:29:17;;;;;;;3.35;2.00;;;8.10;78.80;;;;;;5061580;28;20036;-93
2021/05/07 02:31:44;;;;;;;3.13;2.15;;;8.10;78.60;;;;;;5066325;28;20032;-90
2021/05/07 02:34:11;;;;;;;4.70;2.25;;;8.20;78.50;;;;;;5077122;28;20072;-91
2021/05/07 02:36:38;;;;;;;3.05;2.15;;;8.20;78.30;;;;;;5072365;28;20026;-92
2021/05/07 02:39:05;;;;;;;2.55;2.08;;;8.30;78.30;;;;;;5026077;28;20433;-94
2021/05/07 02:41:32;;;;;;;2.95;2.08;;;8.20;78.00;;;;;;5038380;28;20029;-94
2021/05/07 02:43:58;;;;;;;3.65;2.05;;;8.20;78.00;;;;;;5061024;28;20547;-92
2021/05/07 02:46:25;;;;;;;3.78;1.80;;;8.20;78.10;;;;;;5066298;28;20065;-93
2021/05/07 02:48:51;;;;;;;3.20;1.75;;;8.10;78.20;;;;;;5045253;28;20486;-91
2021/05/07 02:51:17;;;;;;;7.15;2.15;;;8.10;78.40;;;;;;5047381;28;20014;-91
2021/05/07 02:53:43;;;;;;;2.72;2.22;;;8.20;78.50;;;;;;5069076;28;20028;-91
2021/05/07 02:56:08;;;;;;;4.63;2.35;;;8.20;78.60;;;;;;5043070;28;20025;-92
2021/05/07 02:58:34;;;;;;;4.15;2.47;;;8.20;78.40;;;;;;5057403;28;20025;-92
2021/05/07 03:01:00;;;;;;;3.63;2.45;;;8.20;78.30;;;;;;5058181;28;20040;-93
2021/05/07 03:03:26;;;;;;;5.03;2.08;;;8.20;78.20;;;;;;5066109;28;20470;-91
2021/05/07 03:05:52;;;;;;;6.10;2.40;;;8.30;78.20;;;;;;5063682;28;20037;-92
2021/05/07 03:08:24;;;;;;;2.63;2.30;;;8.20;78.10;;;;;;5064883;28;20025;-91
2021/05/07 03:10:51;;;;;;;2.38;2.08;;;8.30;78.00;;;;;;5059572;28;20059;-90
2021/05/07 03:13:17;;;;;;;6.65;2.22;;;8.30;77.90;;;;;;5047901;28;20029;-92
2021/05/07 03:15:43;;;;;;;3.03;1.98;;;8.30;77.60;;;;;;5072666;28;20053;-91
2021/05/07 03:18:19;;;;;;;2.50;1.98;;;8.30;77.60;;;;;;5060434;28;20084;-90
2021/05/07 03:20:46;;;;;;;3.42;2.42;;;8.30;77.40;;;;;;5059866;28;20028;-91
2021/05/07 03:23:13;;;;;;;3.13;2.33;;;8.30;77.20;;;;;;5050460;28;20434;-93
2021/05/07 03:25:39;;;;;;;2.30;2.03;;;8.30;77.10;;;;;;5042574;28;20037;-92
2021/05/07 03:28:06;;;;;;;3.70;2.42;;;8.30;77.10;;;;;;5042720;28;20397;-94
2021/05/07 03:30:33;;;;;;;2.80;1.80;;;8.30;76.90;;;;;;5047390;28;20029;-92
2021/05/07 03:33:03;;;;;;;3.58;2.47;;;8.40;76.90;;;;;;5063542;28;20071;-91
2021/05/07 03:35:30;;;;;;;3.67;2.63;;;8.40;76.60;;;;;;5056915;28;20031;-90
2021/05/07 03:37:56;;;;;;;4.03;2.08;;;8.50;76.40;;;;;;5053240;28;20109;-91
2021/05/07 03:40:22;;;;;;;5.18;2.10;;;8.50;76.10;;;;;;5040957;28;20394;-89
2021/05/07 03:42:48;;;;;;;2.67;1.80;;;8.60;76.10;;;;;;5060120;28;20021;-91
2021/05/07 03:45:15;;;;;;;4.28;2.42;;;8.60;75.80;;;;;;5041536;28;20040;-91
2021/05/07 03:47:41;;;;;;;4.13;2.10;;;8.70;75.50;;;;;;5060170;28;20052;-93
2021/05/07 03:50:08;;;;;;;6.55;2.25;;;8.90;75.20;;;;;;5060211;28;20033;-91
2021/05/07 03:52:38;;;;;;;5.30;2.65;;;9.00;75.00;;;;;;5062574;28;20032;-89
2021/05/07 03:55:06;;;;;;;5.40;2.13;;;9.10;74.70;;;;;;5062172;28;20433;-91
2021/05/07 03:57:32;;;;;;;3.67;2.40;;;9.20;74.10;;;;;;5062945;28;20001;-91
2021/05/07 03:59:58;;;;;;;1.90;1.70;;;9.20;73.70;;;;;;5072515;28;20036;-90
2021/05/07 04:02:24;;;;;;;3.67;2.03;;;9.20;73.30;;;;;;5060712;28;20025;-91
2021/05/07 04:04:51;;;;;;;3.08;2.28;;;9.40;73.30;;;;;;5059651;28;20106;-92
2021/05/07 04:07:17;;;;;;;4.30;2.47;;;9.50;72.60;;;;;;5041389;28;20119;-91
2021/05/07 04:10:00;;;;;;;4.95;2.88;;;9.50;72.60;;;;;;5042085;28;20267;-93
2021/05/07 04:15:22;;;;;;;2.95;2.65;;;9.50;72.10;;;;;;4971125;28;20045;-91
2021/05/07 04:17:48;;;;;;;4.93;1.80;;;9.50;72.10;;;;;;4978702;28;20027;-91
2021/05/07 04:20:14;;;;;;;4.07;2.40;;;9.60;71.90;;;;;;4977667;28;20035;-92
2021/05/07 04:22:40;;;;;;;5.63;2.95;;;9.70;71.60;;;;;;4979348;28;20034;-92
2021/05/07 04:25:10;;;;;;;3.95;2.53;;;9.70;71.20;;;;;;4928772;29;20050;-92
2021/05/07 04:27:37;;;;;;;6.55;2.65;;;9.80;71.00;;;;;;4966143;29;20099;-94
2021/05/07 04:30:07;;;;;;;4.28;2.47;;;9.90;70.50;;;;;;4969210;29;20038;-91
2021/05/07 04:32:34;;;;;;;2.70;2.15;;;10.00;70.00;;;;;;4956601;29;20032;-87
2021/05/07 04:35:01;;;;;;;6.47;3.22;;;10.00;69.60;;;;;;4962394;29;20052;-91
2021/05/07 04:37:29;;;;;;;5.45;4.00;;;10.20;69.50;;;;;;4927730;29;20035;-92
2021/05/07 04:39:56;;;;;;;4.38;2.83;;;10.40;68.90;;;;;;4953480;29;20036;-91
2021/05/07 04:42:22;;;;;;;4.07;2.42;;;10.50;68.40;;;;;;4938547;29;20425;-91
2021/05/07 04:44:48;;;;;;;3.55;2.20;;;10.70;67.50;;;;;;4948124;29;20063;-91
2021/05/07 04:47:14;;;;;;;10.52;3.67;;;10.80;67.70;;;;;;4944455;29;20076;-92
2021/05/07 04:49:39;;;;;;;2.70;2.13;;;11.20;67.90;;;;;;4946202;29;20042;-93
2021/05/07 04:52:06;;;;;;;3.55;2.28;;;11.60;66.20;;;;;;4991426;28;20042;-92
2021/05/07 04:54:34;;;;;;;5.83;2.23;;;12.00;63.30;;;;;;5010392;28;20066;-95
2021/05/07 04:57:02;;;;;;;3.72;2.40;;;12.30;61.80;;;;;;5014172;28;20030;-94
2021/05/07 04:59:28;;;;;;;3.15;2.70;;;12.80;61.10;;;;;;5018426;28;20038;-93
2021/05/07 05:01:53;;;;;;;5.15;2.58;;;12.70;59.10;;;;;;5021183;28;20079;-91
2021/05/07 05:04:19;;;;;;;7.38;2.30;;;12.90;58.70;;;;;;5058302;28;20033;-92
2021/05/07 05:06:45;;;;;;;4.90;2.47;;;12.80;58.80;;;;;;5076448;28;20104;-90
2021/05/07 05:09:11;;;;;;;4.60;2.20;;;12.50;58.60;;;;;;5064365;28;20091;-90
2021/05/07 05:11:37;;;;;;;4.00;2.47;;;12.00;59.30;;;;;;5066897;28;20031;-93
2021/05/07 05:14:03;;;;;;;4.30;2.40;;;11.70;61.00;;;;;;5067336;28;20025;-93
2021/05/07 05:16:29;;;;;;;5.90;2.40;;;12.10;61.60;;;;;;5032842;28;20038;-91
2021/05/07 05:18:55;;;;;;;4.88;2.67;;;12.80;59.20;;;;;;5051135;28;20088;-93
2021/05/07 05:21:21;;;;;;;4.82;2.60;;;13.80;57.40;;;;;;5052520;28;20018;-92
2021/05/07 05:23:49;;;;;;;3.42;2.50;;;15.10;54.70;;;;;;5057484;28;20080;-91
2021/05/07 05:26:15;;;;;;;6.10;2.22;;;16.70;51.10;;;;;;5034585;28;20057;-92
2021/05/07 05:28:42;;;;;;;6.07;2.38;;;18.00;48.30;;;;;;5046895;28;20075;-93
2021/05/07 05:31:09;;;;;;;4.25;2.03;;;19.40;45.10;;;;;;5026070;28;20048;-93
2021/05/07 05:33:35;;;;;;;7.40;2.35;;;20.10;41.80;;;;;;5032462;28;20021;-91
2021/05/07 05:36:01;;;;;;;3.67;2.22;;;20.40;40.40;;;;;;5033065;28;20403;-94
2021/05/07 05:38:27;;;;;;;2.33;1.48;;;20.10;39.70;;;;;;5019296;28;20500;-91
2021/05/07 05:40:54;;;;;;;4.93;1.60;;;19.80;39.40;;;;;;5037364;28;20132;-92
2021/05/07 05:43:20;;;;;;;4.63;1.48;;;19.80;39.80;;;;;;5039687;28;20375;-93
2021/05/07 05:45:46;;;;;;;6.05;1.77;;;20.00;38.80;;;;;;5035749;28;20040;-92
2021/05/07 05:48:14;;;;;;;2.78;1.48;;;19.70;39.20;;;;;;5056151;28;20037;-93
2021/05/07 05:50:45;;;;;;;;;;;19.70;40.20;;;;;;5042229;28;20025;-91
2021/05/07 05:53:11;;;;;;;2.08;1.60;;;20.00;41.50;;;;;;5042433;28;20281;-92
2021/05/07 05:55:40;;;;;;;4.50;2.00;;;20.20;38.90;;;;;;5043168;28;20032;-92
2021/05/07 05:58:06;;;;;;;5.00;1.88;;;20.70;38.30;;;;;;5063081;28;20056;-94
2021/05/07 06:00:32;;;;;;;2.88;1.45;;;21.80;37.10;;;;;;5067172;28;20063;-92
2021/05/07 06:02:58;;;;;;;2.63;1.70;;;23.10;34.40;;;;;;5054781;28;20089;-94
2021/05/07 06:05:25;;;;;;;3.25;1.40;;;24.10;32.40;;;;;;5052733;28;20060;-95
2021/05/07 06:07:52;;;;;;;5.28;1.15;;;24.70;30.30;;;;;;5063508;28;20037;-92
2021/05/07 06:10:19;;;;;;;3.90;1.05;;;24.60;30.30;;;;;;5061480;28;20035;-92
2021/05/07 06:12:46;;;;;;;;;;;25.30;30.00;;;;;;5045744;28;20018;-93
2021/05/07 06:15:13;;;;;;;3.30;1.35;;;26.50;32.40;;;;;;5066123;28;19920;-93
2021/05/07 06:17:40;;;;;;;3.75;1.05;;;26.10;28.10;;;;;;5056120;28;20049;-94
2021/05/07 06:20:08;;;;;;;2.25;1.45;;;23.60;29.90;;;;;;5036005;28;20444;-91
2021/05/07 06:22:38;;;;;;;3.22;1.20;;;24.00;31.10;;;;;;5063773;28;20025;-94
2021/05/07 06:25:10;;;;;;;1.73;1.00;;;24.80;29.80;;;;;;5052945;28;20098;-92
2021/05/07 06:27:36;;;;;;;4.32;1.63;;;24.60;29.30;;;;;;5061448;28;20035;-93
2021/05/07 06:30:09;;;;;;;2.63;1.30;;;25.20;29.60;;;;;;5066648;28;20025;-93
2021/05/07 06:32:35;;;;;;;3.88;1.38;;;25.20;29.10;;;;;;5075552;28;20065;-91
2021/05/07 06:35:01;;;;;;;3.85;1.50;;;25.20;29.20;;;;;;5060084;28;20028;-95
2021/05/07 06:37:27;;;;;;;1.67;0.80;;;25.80;29.00;;;;;;5009261;28;20034;-94
2021/05/07 06:39:57;;;;;;;2.25;1.10;;;26.70;27.90;;;;;;4999552;28;20066;-93
2021/05/07 06:42:23;;;;;;;3.45;1.02;;;27.50;27.30;;;;;;5004999;28;20047;-94
2021/05/07 06:44:49;;;;;;;1.83;1.00;;;28.00;26.50;;;;;;5002850;28;20045;-93
2021/05/07 06:47:16;;;;;;;3.22;1.25;;;28.50;26.20;;;;;;4986733;28;20045;-94
2021/05/07 06:49:42;;;;;;;1.98;0.85;;;29.20;26.00;;;;;;5003754;28;20042;-94
2021/05/07 06:52:10;;;;;;;2.95;0.90;;;30.10;25.70;;;;;;5012408;28;20031;-92
2021/05/07 06:54:41;;;;;;;3.17;1.63;;;29.30;25.70;;;;;;5007325;28;20042;-93
2021/05/07 06:57:18;;;;;;;5.80;1.30;;;28.90;25.70;;;;;;4995372;28;20030;-96
2021/05/07 06:59:47;;;;;;;2.45;1.08;;;29.00;25.70;;;;;;4992658;28;20018;-93
2021/05/07 07:02:14;;;;;;;4.70;0.93;;;27.70;25.90;;;;;;5013315;28;20092;-92
2021/05/07 07:04:41;;;;;;;1.90;1.08;;;27.80;26.60;;;;;;5012980;28;20022;-95
2021/05/07 07:07:07;;;;;;;2.38;1.00;;;28.60;25.80;;;;;;5006704;28;20034;-95
2021/05/07 07:09:33;;;;;;;3.80;1.25;;;27.90;25.90;;;;;;5000827;28;20105;-93
2021/05/07 07:12:17;;;;;;;4.38;1.73;;;26.10;26.40;;;;;;4999179;28;20038;-95
2021/05/07 07:14:42;;;;;;;2.42;1.63;;;23.50;28.50;;;;;;5010650;28;20039;-94
2021/05/07 07:17:10;;;;;;;4.47;1.45;;;21.30;30.00;;;;;;5044722;28;20068;-93
2021/05/07 07:19:37;;;;;;;2.40;0.98;;;21.10;31.70;;;;;;5062886;28;20028;-93
2021/05/07 07:22:04;;;;;;;3.07;1.10;;;22.40;31.10;;;;;;5071098;28;20048;-93
2021/05/07 07:24:30;;;;;;;;;;;24.50;29.90;;;;;;5065971;28;20031;-89
2021/05/07 07:26:57;;;;;;;3.83;1.20;;;25.60;28.70;;;;;;5070708;28;19979;-91
2021/05/07 07:29:23;;;;;;;1.77;0.82;;;26.70;27.30;;;;;;5071759;28;20021;-92
2021/05/07 07:31:51;;;;;;;2.88;2.33;;;27.70;26.20;;;;;;5060952;28;20032;-89
2021/05/07 07:34:17;;;;;;;1.80;1.30;;;26.90;26.50;;;;;;5045039;28;20426;-92
2021/05/07 07:36:43;;;;;;;2.20;0.82;;;27.20;26.50;;;;;;5056306;28;20029;-93
2021/05/07 07:39:09;;;;;;;1.40;0.93;;;28.50;26.00;;;;;;5043447;28;20025;-92
2021/05/07 07:41:35;;;;;;;3.30;0.90;;;29.80;25.00;;;;;;5058263;28;20021;-91
2021/05/07 07:44:01;;;;;;;3.58;1.13;;;30.10;24.30;;;;;;5058794;28;20512;-90
2021/05/07 07:46:28;;;;;;;9.98;1.27;;;29.00;24.20;;;;;;5045825;28;20037;-87
2021/05/07 07:48:54;;;;;;;2.20;1.00;;;27.60;25.20;;;;;;5052604;28;20490;-86
2021/05/07 07:51:19;;;;;;;1.38;0.90;;;27.60;25.80;;;;;;5054703;28;20025;-87
2021/05/07 07:53:45;;;;;;;2.78;1.27;;;28.40;25.30;;;;;;5055767;28;20017;-88
2021/05/07 07:56:11;;;;;;;6.77;1.40;;;30.10;24.90;;;;;;5054914;28;20101;-85
2021/05/07 07:58:37;;;;;;;7.93;1.10;;;30.90;23.90;;;;;;5054709;28;20029;-85
2021/05/07 08:01:03;;;;;;;1.85;1.00;;;29.70;23.50;;;;;;5058452;28;20021;-85
2021/05/07 08:03:29;;;;;;;3.75;0.93;;;28.50;24.30;;;;;;5060427;28;20411;-84
2021/05/07 08:05:55;;;;;;;4.90;1.63;;;27.90;24.90;;;;;;5053698;28;20134;-85
2021/05/07 08:08:20;;;;;;;4.18;0.80;;;28.40;25.30;;;;;;5053996;28;20021;-86
2021/05/07 08:10:47;;;;;;;0.80;0.80;;;29.50;24.00;;;;;;5052706;28;20580;-84
2021/05/07 08:13:13;;;;;;;3.85;1.80;;;30.90;23.50;;;;;;5052911;28;20017;-85
2021/05/07 08:15:38;;;;;;;2.17;0.93;;;31.40;23.40;;;;;;5053187;28;20049;-87
2021/05/07 08:18:04;;;;;;;2.60;1.47;;;31.90;22.40;;;;;;5055392;28;20021;-92
2021/05/07 08:20:30;;;;;;;2.83;0.95;;;31.10;23.20;;;;;;5040193;28;20127;-91
2021/05/07 08:23:01;;;;;;;3.50;1.20;;;31.20;23.10;;;;;;5057518;28;20052;-92
2021/05/07 08:25:27;;;;;;;1.42;0.88;;;32.20;22.90;;;;;;5063526;28;20031;-95
2021/05/07 08:27:53;;;;;;;4.30;0.95;;;33.30;22.20;;;;;;5057112;28;20124;-85
2021/05/07 08:30:19;;;;;;;3.53;0.70;;;33.10;22.00;;;;;;5053499;28;20390;-88
2021/05/07 08:32:45;;;;;;;4.90;1.20;;;33.00;22.00;;;;;;5027906;28;20025;-87
2021/05/07 08:35:11;;;;;;;1.70;0.73;;;33.30;22.00;;;;;;5054006;28;20416;-84
2021/05/07 08:37:44;;;;;;;4.28;0.70;;;32.70;21.40;;;;;;5053954;28;20743;-86
2021/05/07 08:40:19;;;;;;;1.13;0.90;;;31.20;22.30;;;;;;5057020;28;20104;-86
2021/05/07 08:42:45;;;;;;;2.55;0.98;;;31.40;22.80;;;;;;5057519;28;20017;-90
2021/05/07 08:45:12;;;;;;;3.65;1.60;;;32.50;22.00;;;;;;5061797;28;20077;-89
2021/05/07 08:47:38;;;;;;;;;;;32.80;22.10;;;;;;5068272;28;20089;-90
2021/05/07 08:50:06;;;;;;;3.63;1.05;;;33.90;23.30;;;;;;5057762;28;20359;-92
2021/05/07 08:52:34;;;;;;;3.45;1.08;;;34.70;21.10;;;;;;5066255;28;20025;-90
2021/05/07 08:55:00;;;;;;;3.55;1.70;;;34.30;20.80;;;;;;5073461;28;20025;-94
2021/05/07 08:57:26;;;;;;;4.82;1.25;;;33.10;20.90;;;;;;5063007;28;20029;-93
2021/05/07 08:59:52;;;;;;;3.00;0.77;;;31.90;21.70;;;;;;5041414;28;20032;-85
2021/05/07 09:02:29;;;;;;;1.10;0.80;;;31.70;21.80;;;;;;5035260;28;20029;-86
2021/05/07 09:04:56;;;;;;;2.30;0.80;;;30.70;22.10;;;;;;5057182;28;20478;-88
2021/05/07 09:07:29;;;;;;;2.33;0.90;;;27.80;22.10;;;;;;5057722;28;20017;-84
2021/05/07 09:10:01;;;;;;;3.88;0.90;;;24.30;24.00;;;;;;5057624;28;20474;-87
2021/05/07 09:12:29;;;;;;;3.03;1.80;;;22.40;26.40;;;;;;5058960;28;20029;-89
2021/05/07 09:14:56;;;;;;;3.50;1.17;;;22.50;26.70;;;;;;5061818;28;20041;-89
2021/05/07 09:17:24;;;;;;;2.75;0.80;;;22.90;26.20;;;;;;5061371;28;20037;-86
2021/05/07 09:20:09;;;;;;;3.65;1.60;;;21.90;26.70;;;;;;5061984;28;20025;-86
2021/05/07 09:22:36;;;;;;;7.32;3.00;;;21.10;27.70;;;;;;5041179;28;20088;-87
2021/05/07 09:25:10;;;;;;;2.80;1.10;;;20.60;28.40;;;;;;5039202;28;20020;-85
2021/05/07 09:27:36;;;;;;;12.00;2.13;;;;;;;;;;5058538;28;20029;-88
2021/05/07 09:30:06;;;;;;;7.25;1.27;;;20.00;29.30;;;;;;5040264;28;20079;-86
2021/05/07 09:32:33;;;;;;;6.32;1.60;;;21.30;28.50;;;;;;5065425;28;20036;-86
2021/05/07 09:35:13;;;;;;;3.17;1.17;;;23.20;26.90;;;;;;5062423;28;20033;-87
2021/05/07 09:37:40;;;;;;;3.72;1.20;;;25.00;25.80;;;;;;5063454;28;20024;-91
2021/05/07 09:40:24;;;;;;;1.63;0.98;;;26.50;24.60;;;;;;5044920;28;20074;-90
2021/05/07 09:43:01;;;;;;;4.03;1.05;;;28.10;24.10;;;;;;5048178;28;20025;-86
2021/05/07 09:45:27;;;;;;;2.25;1.17;;;29.10;23.00;;;;;;5055937;28;20490;-86
2021/05/07 09:47:54;;;;;;;3.00;1.10;;;30.40;22.70;;;;;;5056290;28;20035;-85
2021/05/07 09:50:40;;;;;;;4.90;1.35;;;30.40;22.10;;;;;;5054420;28;20446;-86
2021/05/07 09:53:13;;;;;;;2.97;1.17;;;28.10;22.70;;;;;;5055234;28;20032;-82
2021/05/07 09:55:40;;;;;;;2.67;1.00;;;26.00;23.30;;;;;;5054188;28;20328;-85
2021/05/07 09:58:05;;;;;;;2.67;1.45;;;26.00;24.10;;;;;;5055844;28;20025;-83
2021/05/07 10:00:32;;;;;;;3.08;1.13;;;27.70;23.50;;;;;;5059155;28;20375;-83
2021/05/07 10:02:59;;;;;;;2.15;1.33;;;28.70;23.00;;;;;;5055954;28;20047;-83
2021/05/07 10:05:27;;;;;;;2.67;1.50;;;28.60;22.70;;;;;;5054806;28;20029;-84
2021/05/07 10:07:53;;;;;;;2.92;1.08;;;27.40;22.80;;;;;;5072902;28;20115;-84
2021/05/07 10:10:24;;;;;;;1.13;0.90;;;25.70;23.50;;;;;;5065242;28;20013;-89
2021/05/07 10:12:53;;;;;;;2.97;1.63;;;24.90;23.80;;;;;;5055846;28;20513;-89
2021/05/07 10:15:35;;;;;;;3.35;1.52;;;23.60;24.90;;;;;;5056154;28;20099;-85
2021/05/07 10:18:01;;;;;;;2.42;1.30;;;22.40;25.40;;;;;;5038395;28;20032;-81
2021/05/07 10:20:30;;;;;;;5.57;2.25;;;22.40;26.50;;;;;;5044924;28;20036;-93
2021/05/07 10:22:56;;;;;;;2.30;1.00;;;22.50;26.50;;;;;;5071217;28;20031;-94
2021/05/07 10:25:25;;;;;;;2.88;1.60;;;21.60;26.30;;;;;;5070625;28;20025;-91
2021/05/07 10:27:58;;;;;;;2.78;1.40;;;20.90;27.30;;;;;;5048196;28;20033;-92
2021/05/07 10:30:32;;;;;;;3.53;1.67;;;20.40;27.50;;;;;;5048979;28;20079;-84
2021/05/07 10:33:03;;;;;;;4.32;1.80;;;19.90;27.70;;;;;;5069193;28;20017;-85
2021/05/07 10:35:37;;;;;;;4.97;1.95;;;19.50;28.50;;;;;;5078092;28;20021;-92
2021/05/07 10:38:08;;;;;;;8.85;1.65;;;19.00;28.00;;;;;;5078406;28;20009;-94
2021/05/07 10:40:41;;;;;;;3.17;1.30;;;18.40;29.10;;;;;;5064839;28;20017;-92
2021/05/07 10:43:09;;;;;;;4.20;1.23;;;18.10;29.70;;;;;;5041172;28;20398;-88
2021/05/07 10:45:47;;;;;;;5.07;3.50;;;17.90;29.70;;;;;;5038431;28;20025;-89
2021/05/07 10:48:16;;;;;;;8.15;1.52;;;17.90;30.00;;;;;;5057837;28;20154;-88
2021/05/07 10:50:47;;;;;;;5.68;2.47;;;17.90;29.70;;;;;;5046147;28;20080;-89
2021/05/07 10:53:27;;;;;;;3.67;1.67;;;18.00;30.00;;;;;;5064537;28;20009;-89
2021/05/07 10:55:58;;;;;;;4.95;1.98;;;17.90;29.80;;;;;;5076539;28;20049;-94
2021/05/07 10:58:32;;;;;;;2.05;1.58;;;17.90;29.90;;;;;;5041055;28;20039;-95
2021/05/07 11:00:58;;;;;;;6.22;1.35;;;17.80;29.50;;;;;;5035413;28;20036;-92
2021/05/07 11:03:24;;;;;;;2.58;1.55;;;17.60;29.60;;;;;;5039086;28;20023;-82
2021/05/07 11:05:51;;;;;;;6.43;1.70;;;17.80;30.00;;;;;;5055767;28;20537;-91
2021/05/07 11:08:21;;;;;;;3.72;1.70;;;17.90;30.00;;;;;;5056106;28;20059;-86
2021/05/07 11:10:48;;;;;;;3.10;1.70;;;18.00;29.90;;;;;;5054061;28;20019;-84
2021/05/07 11:13:15;;;;;;;4.60;2.17;;;17.90;30.00;;;;;;5053777;28;20021;-85
2021/05/07 11:15:41;;;;;;;3.50;1.23;;;17.60;29.90;;;;;;5056092;28;20052;-85
2021/05/07 11:18:10;;;;;;;3.17;1.45;;;17.60;30.00;;;;;;5059399;28;20016;-90
2021/05/07 11:20:38;;;;;;;4.53;1.85;;;17.60;29.90;;;;;;5056028;28;20031;-84
2021/05/07 11:23:13;;;;;;;1.92;1.38;;;17.50;29.90;;;;;;5034732;28;20049;-86
2021/05/07 11:25:40;;;;;;;8.68;1.95;;;17.40;30.60;;;;;;5054613;28;20119;-92
2021/05/07 11:28:18;;;;;;;5.90;1.60;;;17.30;31.10;;;;;;5064574;28;20096;-90
2021/05/07 11:30:55;;;;;;;5.88;1.52;;;17.30;30.50;;;;;;5026484;28;20060;-89
2021/05/07 11:33:28;;;;;;;5.68;1.17;;;17.40;31.10;;;;;;5055087;28;20021;-89
2021/05/07 11:36:14;;;;;;;8.05;1.80;;;17.20;30.50;;;;;;5064947;28;20029;-88
2021/05/07 11:38:43;;;;;;;2.35;1.40;;;16.90;30.10;;;;;;5073134;28;20028;-90
2021/05/07 11:41:29;;;;;;;7.15;1.65;;;16.60;30.70;;;;;;5070526;28;20037;-92
2021/05/07 11:44:09;;;;;;;4.32;1.50;;;16.50;31.40;;;;;;5057967;28;20054;-92
2021/05/07 11:46:55;;;;;;;5.53;1.80;;;16.70;32.10;;;;;;5051652;28;20025;-94
2021/05/07 11:49:24;;;;;;;4.93;2.08;;;16.80;31.50;;;;;;5041599;28;20025;-93
2021/05/07 11:51:50;;;;;;;5.07;1.50;;;16.80;31.40;;;;;;5057824;28;20021;-89
2021/05/07 11:54:16;;;;;;;4.85;1.40;;;16.70;30.80;;;;;;5051153;28;20055;-91
2021/05/07 11:56:56;;;;;;;2.97;1.38;;;16.60;31.10;;;;;;5031557;28;20037;-95
2021/05/07 11:59:22;;;;;;;4.65;1.58;;;16.50;31.30;;;;;;5025565;28;20030;-92
2021/05/07 12:01:49;;;;;;;4.22;2.10;;;16.40;31.90;;;;;;4982097;28;20054;-93
2021/05/07 12:04:18;;;;;;;2.75;1.63;;;16.50;32.10;;;;;;4982217;28;20330;-91
2021/05/07 12:06:47;;;;;;;3.38;1.60;;;16.40;31.20;;;;;;4955336;28;20095;-96
2021/05/07 12:09:13;;;;;;;7.65;1.80;;;16.30;31.10;;;;;;4967875;28;20031;-93
2021/05/07 12:11:54;;;;;;;5.63;1.80;;;16.40;31.20;;;;;;4978655;28;20038;-95
2021/05/07 12:14:19;;;;;;;4.75;1.75;;;16.60;31.20;;;;;;4950064;28;20030;-91
2021/05/07 12:16:46;;;;;;;2.83;1.35;;;16.40;30.80;;;;;;4976450;28;20062;-90
2021/05/07 12:19:18;;;;;;;3.42;1.90;;;16.40;30.50;;;;;;4975178;28;20026;-88
2021/05/07 12:21:45;;;;;;;3.17;1.70;;;16.50;30.70;;;;;;4989389;28;20038;-93
2021/05/07 12:24:24;;;;;;;4.15;1.80;;;16.60;30.90;;;;;;4992749;28;20046;-92
2021/05/07 12:26:50;;;;;;;13.88;2.08;;;16.70;30.80;;;;;;4986683;28;20062;-89
2021/05/07 12:29:17;;;;;;;4.75;1.85;;;16.80;30.70;;;;;;4994519;28;20454;-90
2021/05/07 12:31:43;;;;;;;8.70;1.60;;;16.70;30.90;;;;;;5004520;28;20034;-94
2021/05/07 12:34:17;;;;;;;6.18;3.92;;;16.80;31.00;;;;;;5064365;28;20037;-90
2021/05/07 12:36:44;;;;;;;3.13;1.48;;;16.80;31.00;;;;;;5069002;28;20037;-90
2021/05/07 12:39:13;;;;;;;4.00;1.60;;;17.00;31.00;;;;;;5070908;28;20056;-89
2021/05/07 12:41:39;;;;;;;4.68;1.55;;;16.90;30.90;;;;;;5046329;28;20081;-95
2021/05/07 12:44:05;;;;;;;7.07;2.10;;;16.90;31.20;;;;;;5067028;28;20033;-94
2021/05/07 12:46:34;;;;;;;4.30;1.63;;;16.90;31.10;;;;;;5050621;28;20047;-96
2021/05/07 12:49:01;;;;;;;4.63;1.65;;;16.90;31.30;;;;;;5053204;28;20025;-93
2021/05/07 12:51:27;;;;;;;3.70;1.40;;;16.80;30.70;;;;;;5037183;28;20029;-88
2021/05/07 12:53:54;;;;;;;5.30;1.75;;;16.70;30.30;;;;;;5065671;28;20036;-91
2021/05/07 12:56:23;;;;;;;1.88;1.35;;;16.60;31.80;;;;;;5035001;28;20029;-93
2021/05/07 12:58:52;;;;;;;3.33;1.50;;;16.70;30.30;;;;;;5049977;28;20029;-92
2021/05/07 13:01:20;;;;;;;3.20;1.60;;;16.50;30.00;;;;;;5041936;28;20029;-89